• Join FlightAware (Why Join?)
  • Login
  • US Flag 
09:59PM EDT


 

Airport Tracker/Info


-or-


 

Live Flight TrackerFlight Track Log ✈ RPA4900 ✈ 20-Jun-2013 ✈ KEWR - KORF

Flight Track Log - Related Links

Times and Time Zones

All times are in EDT time to prevent confusion due to time zone crossing. See the RPA4900 flight status page for this flight to view local times or setup timezone preferences in your user account.

Time Position Orientation Groundspeed Altitude Reporting Facility
EDT Latitude Longitude Course Direction KTS MPH feet Rate Location/Type
02:34PM 40.6500 -74.1833 180° South 179 206 1,800  Level New York TRACON
02:35PM 40.6000 -74.2167 207° Southwest 205 236 3,900 2,100 Climbing New York TRACON
02:36PM 40.4136 -74.2119 157° South  Level FlightAware Approximate
02:36PM 40.5500 -74.2667 217° Southwest 231 266 5,800  Level New York TRACON
02:37PM 40.3213 -74.1616 157° South  Level FlightAware Approximate
02:37PM 40.5000 -74.2500 166° South 253 291 6,000  Level New York TRACON
02:38PM 40.2256 -74.1748 194° South  Level FlightAware Approximate
02:38PM 40.4333 -74.2167 159° South 256 295 6,000  Level New York TRACON
02:39PM 40.1282 -74.2000 180° South  Level FlightAware Approximate
02:39PM 40.3667 -74.1833 159° South 263 303 6,000  Level New York TRACON
02:40PM 40.2892 -74.1858 181° South 266 306 8,100 1,740 Climbing New York Center
02:41PM 40.2117 -74.2064 191° South 261 300 9,900 1,440 Climbing New York Center
02:42PM 40.1403 -74.2219 189° South 272 313 11,000 540 Climbing New York Center
02:43PM 40.0542 -74.2419 190° South 306 352 11,000 180 Level New York Center
02:44PM 39.9653 -74.2917 203° Southwest 317 365 11,400 900 Climbing New York Center
02:45PM 39.8986 -74.3586 218° Southwest 317 365 12,900 1,080 Climbing New York Center
02:46PM 39.8019 -74.4517 216° Southwest 308 354 14,000 780 Climbing Washington Center
02:47PM 39.7483 -74.5256 227° Southwest 317 365 14,800 960 Climbing Washington Center
02:48PM 39.6825 -74.6128 226° Southwest 317 365 16,000 1,140 Climbing Washington Center
02:49PM 39.6289 -74.6836 226° Southwest 312 359 17,100 960 Climbing Washington Center
02:50PM 39.5647 -74.7706 226° Southwest 307 353 18,000 420 Climbing Washington Center
02:51PM 39.4922 -74.8197 208° Southwest 317 365 18,000  Level Washington Center
02:52PM 39.3967 -74.8744 204° Southwest 333 383 18,000  Level Washington Center
02:53PM 39.3117 -74.9317 208° Southwest 355 409 18,000  Level Washington Center
02:54PM 39.2222 -74.9861 205° Southwest 355 409 18,000  Level Washington Center
02:55PM 39.1328 -75.0378 204° Southwest 355 409 18,000  Level Washington Center
02:56PM 39.0456 -75.0892 205° Southwest 375 432 18,000  Level Washington Center
02:57PM 38.9561 -75.1431 205° Southwest 375 432 18,000  Level Washington Center
02:58PM 38.8689 -75.1969 206° Southwest 363 418 18,000  Level Washington Center
02:59PM 38.7794 -75.2508 205° Southwest 358 412 18,000  Level Washington Center
03:00PM 38.6919 -75.3044 206° Southwest 358 412 18,000  Level Washington Center
03:01PM 38.6044 -75.3578 205° Southwest 363 418 18,000  Level Washington Center
03:02PM 38.5067 -75.4139 204° Southwest 353 406 18,000  Level Washington Center
03:03PM 38.4211 -75.4672 206° Southwest 353 406 18,000  Level Washington Center
03:04PM 38.3317 -75.5203 205° Southwest 353 406 18,000 -60 Level Washington Center
03:05PM 38.2439 -75.5733 205° Southwest 353 406 17,900 -600 Descending Washington Center
03:06PM 38.1522 -75.6261 204° Southwest 360 414 16,800 -1,200 Descending Washington Center
03:07PM 38.0606 -75.6814 205° Southwest 360 414 15,600 -1,320 Descending Washington Center
03:08PM 37.9769 -75.7392 209° Southwest 360 414 14,300 -840 Descending Washington Center
03:09PM 37.8914 -75.7944 207° Southwest 349 402 14,000 -480 Descending Washington Center
03:10PM 37.8081 -75.8414 204° Southwest 344 396 13,400 -1,080 Descending Washington Center
03:11PM 37.7286 -75.8936 207° Southwest 333 383 11,900 -1,440 Descending Washington Center
03:12PM 37.6867 -75.9197 206° Southwest 317 365 11,200 -1,320 Descending Washington Center
03:13PM 37.6136 -75.9614 204° Southwest 309 356 10,000 -1,260 Descending Washington Center
03:13PM 37.5719 -75.9797 199° South 313 360 9,400 -1,140 Descending Washington Center
03:14PM 37.4947 -76.0028 193° South 302 348 8,300 -1,080 Descending Washington Center
03:15PM 37.4611 -76.0183 200° South 281 323 7,900 -1,140 Descending Washington Center
03:15PM 37.4194 -76.0311 194° South 290 334 7,200 -1,200 Descending Washington Center
03:16PM 37.3819 -76.0414 192° South 269 310 6,700 -1,200 Descending Washington Center
03:16PM 37.3483 -76.0542 197° South 277 319 6,000 -1,140 Descending Washington Center
03:17PM 37.2733 -76.0800 195° South 277 319 5,000 -720 Descending Washington Center
03:18PM 37.2314 -76.0953 196° South 287 330 5,000 -120 Level Washington Center
03:18PM 37.1981 -76.1028 190° South 277 319 4,900  Descending Washington Center
03:19PM 37.1564 -76.1183 197° South 277 319 5,000 60 Climbing Washington Center
03:20PM 37.0789 -76.1439 195° South 277 319 5,000  Level Washington Center
03:21PM 37.0100 -76.1744 200° South 281 323 5,000  Level Washington Center
03:22PM 36.9514 -76.2314 218° Southwest 273 314 5,000  Level Washington Center